Accueil
METAR-TAF:

METAR-TAF

Aéroports :

Spangdahlem, Allemagne

Spangdahlem Air Base

latitude: 49-59N, longitude: 006-42E, altitude: 365 m

Observation

Le bulletin a été fait il y a 18 minutes, à 23:56 UTC
Vent calme
Température 17°C
Humidité 63%
Pression 1022 hPa
Visibilité 10 km ou plus
Ciel clair

METAR: ETAD 202356Z AUTO 00000KT 9999 CLR 17/10 A3017 RMK AO2 SLP194 T01700099 10243 20167 55001 $

Heure: 02:14 (00:14 UTC)

Prévision

Le bulletin a été fait il y a 4 heures et 15 minutes, à 19:59 UTC
Prévision valable du 20 à 20 UTC au 22 à 01 UTC
Vent 6 kt de direction variable
Visibilité 10 km ou plus
Quelques nuages à une hauteur de 7000 ft
Evoluant progressivement
du 21 à 10 UTC au 21 à 11 UTC
Vent 9 kt de ouest/nord-ouest
Visibilité: 2103 m
Quelques nuages à une hauteur de 7000 ft

TAF: ETAD 201959Z 2020/2201 VRB06KT 9999 FEW070 QNH3013INS BECMG 2110/2111 30009KT 9999 FEW070 QNH3003INS TX25/2115Z TN10/2105Z LAST NO AMDS AFT 2020 NEXT 2103

Observations et prévisions météorologiques de plus de 4000 aéroports (messages METAR et TAF).

Les stations disponibles sont représentées par des disques jaunes et rouges sur la carte.

Passer la souris dessus pour voir le nom de la station.

Cliquer dessus pour voir les observations et prévisions météorologiques.

Pour changer de carte: cliquez sur les boutons verts avec une croix noire pour zoomer, sur le bouton vert avec un tiret pour effectuer un zoom arrière, ou sur les flèches vertes pour les cartes adjacentes.


METAR-TAF: